Nao Victoria — ECHH — position and weather

sailwx.info

Track history (hours):
 
Tides and Currents Weather Stations Pressure Air Temp Water Temp Dewpoint Dewpoint Depression Visibility Wind Speed Wind Dir Waves Ship Positions

Nao Victoria

Last reported at 2017-Apr-26 10:55 UTC. Time now 2017-Apr-26 11:40 UTC.
Position N 50°46' W 001°18'.

Length 25 m; draft 3.2 m.

Type: Sailing vessel. MMSI: 224123770.

Date/timePositionNaut miles runAvg speedWind from/ knotsBaromVisibWave heightAir tempDewpointWater temp
2017-Apr-26 10:55N 50°46' W 001°18'0 0.6
2017-Apr-26 10:27N 50°46' W 001°18'0 0.0
2017-Apr-26 09:55N 50°46' W 001°18'0 0.0
2017-Apr-25 19:58N 50°46' W 001°18'  
2017-Apr-18 04:57N 50°46' W 001°18'0 0.0
2017-Apr-18 04:25N 50°46' W 001°18'0 0.0
2017-Apr-18 04:00N 50°46' W 001°18'0 0.1
2017-Apr-18 03:27N 50°46' W 001°18'2 3.3
2017-Apr-18 02:49N 50°47' W 001°15'2 6.7
2017-Apr-18 02:30N 50°46' W 001°12'3 6.3
2017-Apr-18 02:00N 50°45' W 001°07'3 5.9
2017-Apr-18 01:30N 50°44' W 001°03'6 5.7
2017-Apr-18 00:25N 50°40' W 000°55'13 4.5
2017-Apr-17 21:34N 50°34' W 000°37'1 5.4
2017-Apr-17 21:28N 50°34' W 000°36'3 5.6
2017-Apr-17 21:00N 50°34' W 000°32'3 6.2
2017-Apr-17 20:30N 50°34' W 000°27'3 6.1
2017-Apr-17 20:00N 50°34' W 000°22'3 6.2
2017-Apr-17 19:29N 50°35' W 000°17'3 6.3
2017-Apr-17 19:00N 50°36' W 000°13'3 6.6
2017-Apr-17 18:31N 50°36' W 000°08'3 6.3
2017-Apr-17 18:00N 50°38' W 000°04'3 6.2
2017-Apr-17 17:30N 50°40' E 000°01'4 6.9
2017-Apr-17 17:00N 50°40' E 000°06'3 6.8
2017-Apr-17 16:30N 50°40' E 000°12'3 6.7
2017-Apr-17 15:59N 50°40' E 000°17'47 5.9
2017-Apr-17 08:02N 51°04' E 001°21'1 7.8
2017-Apr-17 07:51N 51°04' E 001°23'3 7.5
2017-Apr-17 07:29N 51°07' E 001°26'3 6.6
2017-Apr-17 06:59N 51°09' E 001°30'3 5.9
2017-Apr-17 06:30N 51°10' E 001°33'3 5.3
2017-Apr-17 06:00N 51°12' E 001°36'2 4.6
2017-Apr-17 05:30N 51°14' E 001°38'2 4.4
2017-Apr-17 05:00N 51°17' E 001°37'2 4.2
2017-Apr-17 04:30N 51°19' E 001°36'2 4.0
2017-Apr-17 04:00N 51°21' E 001°36'2 4.0
2017-Apr-17 03:30N 51°22' E 001°35'2 4.4
2017-Apr-17 03:00N 51°24' E 001°33'2 4.6
2017-Apr-17 02:30N 51°27' E 001°32'2 4.8
2017-Apr-17 02:00N 51°29' E 001°31'2 4.9
2017-Apr-17 01:30N 51°28' E 001°27'10 4.6
2017-Apr-16 23:25N 51°29' E 001°12'2 5.1
2017-Apr-16 23:00N 51°29' E 001°08'3 5.5
2017-Apr-16 22:30N 51°29' E 001°04'13 6.5
2017-Apr-16 20:31N 51°30' E 000°43'1 8.2
2017-Apr-16 20:27N 51°30' E 000°42'4 8.3
2017-Apr-16 20:00N 51°30' E 000°36'4 8.5
2017-Apr-16 19:30N 51°30' E 000°29'4 7.9
2017-Apr-16 19:01N 51°27' E 000°25'4 8.1
2017-Apr-16 18:31N 51°28' E 000°19'4 7.5
2017-Apr-16 18:01N 51°29' E 000°13'4 7.0
2017-Apr-16 17:30N 51°31' E 000°08'  
Track history (hours):
 
Tides and Currents Weather Stations Pressure Air Temp Water Temp Dewpoint Dewpoint Depression Visibility Wind Speed Wind Dir Waves Ship Positions

Nao Victoria

Last reported at 2017-Apr-26 10:55 UTC. Time now 2017-Apr-26 11:40 UTC.
Position N 50°46' W 001°18'.

Length 25 m; draft 3.2 m.

Type: Sailing vessel. MMSI: 224123770.

Date/timePositionNaut miles runAvg speedWind from/ knotsBaromVisibWave heightAir tempDewpointWater temp
2017-Apr-26 10:55N 50°46' W 001°18'0 0.6
2017-Apr-26 10:27N 50°46' W 001°18'0 0.0
2017-Apr-26 09:55N 50°46' W 001°18'0 0.0
2017-Apr-25 19:58N 50°46' W 001°18'  
2017-Apr-18 04:57N 50°46' W 001°18'0 0.0
2017-Apr-18 04:25N 50°46' W 001°18'0 0.0
2017-Apr-18 04:00N 50°46' W 001°18'0 0.1
2017-Apr-18 03:27N 50°46' W 001°18'2 3.3
2017-Apr-18 02:49N 50°47' W 001°15'2 6.7
2017-Apr-18 02:30N 50°46' W 001°12'3 6.3
2017-Apr-18 02:00N 50°45' W 001°07'3 5.9
2017-Apr-18 01:30N 50°44' W 001°03'6 5.7
2017-Apr-18 00:25N 50°40' W 000°55'13 4.5
2017-Apr-17 21:34N 50°34' W 000°37'1 5.4
2017-Apr-17 21:28N 50°34' W 000°36'3 5.6
2017-Apr-17 21:00N 50°34' W 000°32'3 6.2
2017-Apr-17 20:30N 50°34' W 000°27'3 6.1
2017-Apr-17 20:00N 50°34' W 000°22'3 6.2
2017-Apr-17 19:29N 50°35' W 000°17'3 6.3
2017-Apr-17 19:00N 50°36' W 000°13'3 6.6
2017-Apr-17 18:31N 50°36' W 000°08'3 6.3
2017-Apr-17 18:00N 50°38' W 000°04'3 6.2
2017-Apr-17 17:30N 50°40' E 000°01'4 6.9
2017-Apr-17 17:00N 50°40' E 000°06'3 6.8
2017-Apr-17 16:30N 50°40' E 000°12'3 6.7
2017-Apr-17 15:59N 50°40' E 000°17'47 5.9
2017-Apr-17 08:02N 51°04' E 001°21'1 7.8
2017-Apr-17 07:51N 51°04' E 001°23'3 7.5
2017-Apr-17 07:29N 51°07' E 001°26'3 6.6
2017-Apr-17 06:59N 51°09' E 001°30'3 5.9
2017-Apr-17 06:30N 51°10' E 001°33'3 5.3
2017-Apr-17 06:00N 51°12' E 001°36'2 4.6
2017-Apr-17 05:30N 51°14' E 001°38'2 4.4
2017-Apr-17 05:00N 51°17' E 001°37'2 4.2
2017-Apr-17 04:30N 51°19' E 001°36'2 4.0
2017-Apr-17 04:00N 51°21' E 001°36'2 4.0
2017-Apr-17 03:30N 51°22' E 001°35'2 4.4
2017-Apr-17 03:00N 51°24' E 001°33'2 4.6
2017-Apr-17 02:30N 51°27' E 001°32'2 4.8
2017-Apr-17 02:00N 51°29' E 001°31'2 4.9
2017-Apr-17 01:30N 51°28' E 001°27'10 4.6
2017-Apr-16 23:25N 51°29' E 001°12'2 5.1
2017-Apr-16 23:00N 51°29' E 001°08'3 5.5
2017-Apr-16 22:30N 51°29' E 001°04'13 6.5
2017-Apr-16 20:31N 51°30' E 000°43'1 8.2
2017-Apr-16 20:27N 51°30' E 000°42'4 8.3
2017-Apr-16 20:00N 51°30' E 000°36'4 8.5
2017-Apr-16 19:30N 51°30' E 000°29'4 7.9
2017-Apr-16 19:01N 51°27' E 000°25'4 8.1
2017-Apr-16 18:31N 51°28' E 000°19'4 7.5
2017-Apr-16 18:01N 51°29' E 000°13'4 7.0
2017-Apr-16 17:30N 51°31' E 000°08'  

Dump ship's entire track history